AirNav   Everest Fuels
 
 1452 users online  

56MI Beaumont Dearborn Heliport
Dearborn, Michigan, USA

GOING TO DEARBORN?


FAA INFORMATION EFFECTIVE 05 DECEMBER 2019

Location

FAA Identifier: 56MI
Lat/Long: 42-17-23.7200N 083-12-56.7200W
42-17.395333N 083-12.945333W
42.2899222,-83.2157556
(estimated)
Elevation: 597 ft. / 182 m (estimated)
Variation: 06W (1995)
Time zone: UTC -5 (UTC -4 during Daylight Saving Time)
Zip code: 48124

Heliport Operations

Heliport use: Private use, MEDICAL USE.
Activation date: 08/1998
Control tower: no
ARTCC: CLEVELAND CENTER
FSS: LANSING FLIGHT SERVICE STATION
Attendance: CONTINUOUS
Segmented circle: no
Lights: FOR FLOOD LGT CALL 313-593-7720

Heliport Communications

WX ASOS at DTW (8 nm SW): PHONE 734-955-5015
WX ASOS at DET (12 nm NE): PHONE 313-371-9696
WX AWOS-3 at ONZ (12 nm S): 119.675 (734-692-9686)
WX ASOS at YIP (14 nm W): PHONE 734-961-6843
WX AWOS-3 at VLL (15 nm N): 119.475 (248-288-4649)

Nearby radio navigation aids

VOR radial/distance  VOR name  Freq  Var
DXOr061/8.1DETROIT VOR/DME113.4006W
YQGr284/17.3WINDSOR VOR/DME113.8006W
CRLr040/18.1CARLETON VOR/DME115.7003W
SVMr116/18.2SALEM VORTAC114.3003W

 
NDB name  Hdg/Dist  Freq  Var  ID
GROSSE ILE353/11.741907WRYS .-. -.-- ...
TECUMSEH069/33.523906WTCU - -.-. ..-

Heliport Services

Runway Information

Helipad H1

Dimensions: 60 x 60 ft. / 18 x 18 m
Surface: concrete
CIRCULAR PAD.
Runway edge lights: FLD
Latitude: 42-17.395333N
Longitude: 083-12.945333W
Elevation: 597.0 ft.
Traffic pattern: leftleft

Heliport Ownership and Management from official FAA records

Ownership: Privately-owned
Owner: OAKWOOD HOSPITAL
18101 OAKWOOD BLVD
DEARBORN, MI 48124-2500
Phone (313) 593-7720
Manager: SCOTT STOCKINGER
18101 OAKWOOD BLVD
DEARBORN, MI 48124-2500
Phone (313) 982-5811

Additional Remarks

FOR CD CTC DETROIT APCH AT 800-499-8181.

Instrument Procedures

There are no published instrument procedures at 56MI.

Some nearby airports with instrument procedures:

KDTW - Detroit Metropolitan Wayne County Airport (8 nm SW)
1D2 - Canton-Plymouth-Mettetal Airport (11 nm W)
KDET - Coleman A Young Municipal Airport (12 nm NE)
KONZ - Grosse Ile Municipal Airport (12 nm S)
KYIP - Willow Run Airport (14 nm W)
KVLL - Oakland/Troy Airport (15 nm N)
 
Loc | Ops | Rwys | IFR | FBO | Links
Com | Nav | Svcs | Stats | Notes
Area around 56MI (Beaumont Dearborn Heliport)
 
Road maps at: MapQuest Bing Google
 
Aerial photo
No photo
 
Sectional chart

 
Airport distance calculator
Flying to Beaumont Dearborn Heliport? Find the distance to fly.

From to 56MI

Sunrise and sunset
Times for 05-Dec-2019
 Local
(UTC-5)
 Zulu
(UTC)
Morning civil twilight07:1612:16
Sunrise07:4712:47
Sunset17:0022:00
Evening civil twilight17:3122:31

Current date and time
Zulu (UTC)  05-Dec-2019 17:22:28
Local (UTC-5)  05-Dec-2019 12:22:28
 
METAR
KDTW 
6nm SW 
051653Z 29012KT 10SM BKN040 OVC060 03/M04 A3003 RMK AO2 SLP175 T00331044
KDET 
11nm NE 
051653Z 30010G19KT 10SM OVC036 03/M05 A3002 RMK AO2 SLP173 T00281050
CYQG 
11nm E 
051600Z AUTO 30013G23KT 9SM OVC038 03/M04 A3002 RMK SLP173
KONZ 
12nm S 
051656Z AUTO 31011G16KT 10SM BKN037 05/M03 A3002 RMK AO2 T00451034
KYIP 
15nm W 
051653Z 31010KT 10SM OVC035 04/M04 A3003 RMK AO2 SLP172 T00441039
KVLL 
15nm N 
051656Z AUTO 29011G17KT 10SM OVC036 02/M03 A3004 RMK AO2 T00201033
TAF
KDTW 
6nm SW 
051555Z 0516/0618 28010KT P6SM BKN040 FM051700 29011KT P6SM SCT040 OVC080 FM052100 VRB06KT P6SM OVC080 FM060100 17005KT P6SM OVC060 FM061000 31008KT P6SM OVC018
KDET 
11nm NE 
051416Z 0514/0612 28010KT P6SM BKN045 FM051700 28008KT P6SM SCT040 OVC090 FM052100 21006KT P6SM OVC080 FM060100 17005KT P6SM OVC060 FM061000 31008KT P6SM OVC018
CYQG 
11nm E 
051138Z 0512/0612 29010G20KT P6SM BKN050 TEMPO 0512/0516 BKN020 FM051800 29010KT P6SM FEW020 BKN100 FM052100 26008KT P6SM FEW030 BKN060 BECMG 0522/0524 18007KT FM060700 21008KT P6SM -SHRA OVC030 FM060900 24010KT P6SM SCT015 OVC050 BECMG 0610/0612 27012KT RMK FCST BASED ON AUTO OBS. NXT FCST BY 051800Z
KYIP 
15nm W 
051416Z 0514/0612 28010KT P6SM BKN045 FM051700 28008KT P6SM SCT040 OVC090 FM052100 21006KT P6SM OVC080 FM060100 17005KT P6SM OVC060 FM061000 31008KT P6SM OVC018
NOTAMs
Click for the latest NOTAMs
NOTAMs are issued by the DoD/FAA and will open in a separate window not controlled by AirNav.

 

 
 

Would you like to see your business listed on this page?

 If your business provides an interesting product or service to pilots, flight crews, aircraft, or users of the Beaumont Dearborn Heliport, you should consider listing it here.  To start the listing process, click on the button below
 
Add a business
 

Other Pages about Beaumont Dearborn Heliport

Update a link
 
Copyright © AirNav, LLC. All rights reserved. Privacy Policy  Contact